Time;durP1;ratioP1;P1;durP2;ratioP2;P2;SDS_P1;SDS_P2;PMS_P1;PMS_P2;Temp;Humidity;BMP_temperature;BMP_pressure;BME280_temperature;BME280_humidity;BME280_pressure;Samples;Min_cycle;Max_cycle;Signal;HPM_P1;HPM_P2
2022/04/24 00:01:27;;;;;;;0.10;0.10;;;;;;;;;;5016974;28;20485;-68
2022/04/24 00:03:53;;;;;;;0.10;0.10;;;;;;;;;;5016739;28;20469;-68
2022/04/24 00:06:20;;;;;;;0.00;0.00;;;;;;;;;;5017256;28;20088;-68
2022/04/24 00:08:46;;;;;;;0.10;0.10;;;;;;;;;;5016851;28;20107;-68
2022/04/24 00:11:12;;;;;;;0.10;0.10;;;;;;;;;;5017243;28;20155;-68
2022/04/24 00:13:41;;;;;;;0.10;0.10;;;;;;;;;;5016769;28;20068;-68
2022/04/24 00:16:08;;;;;;;0.00;0.00;;;;;;;;;;5017663;28;20029;-68
2022/04/24 00:18:35;;;;;;;0.15;0.15;;;;;;;;;;5016732;28;20069;-68
2022/04/24 00:21:01;;;;;;;0.10;0.10;;;;;;;;;;5015810;28;20034;-68
2022/04/24 00:23:27;;;;;;;0.10;0.10;;;;;;;;;;5016737;28;20041;-68
2022/04/24 00:25:54;;;;;;;0.57;0.57;;;;;;;;;;5016964;28;20124;-68
2022/04/24 00:28:20;;;;;;;0.10;0.10;;;;;;;;;;5016304;28;20057;-68
2022/04/24 00:30:46;;;;;;;0.10;0.10;;;;;;;;;;5016332;28;20045;-68
2022/04/24 00:33:12;;;;;;;0.00;0.00;;;;;;;;;;5016389;28;20052;-68
2022/04/24 00:35:38;;;;;;;0.10;0.10;;;;;;;;;;5016444;28;20461;-68
2022/04/24 00:38:05;;;;;;;0.10;0.10;;;;;;;;;;5016169;28;20578;-68
2022/04/24 00:40:31;;;;;;;0.10;0.10;;;;;;;;;;5016139;28;20121;-68
2022/04/24 00:42:57;;;;;;;0.10;0.10;;;;;;;;;;5015860;28;20045;-68
2022/04/24 00:45:23;;;;;;;0.45;0.45;;;;;;;;;;5015731;28;20501;-68
2022/04/24 00:47:50;;;;;;;0.10;0.10;;;;;;;;;;5016229;28;20057;-68
2022/04/24 00:50:16;;;;;;;0.10;0.10;;;;;;;;;;5015968;28;20038;-67
2022/04/24 00:52:42;;;;;;;0.10;0.10;;;;;;;;;;5015930;28;20105;-68
2022/04/24 00:55:09;;;;;;;0.00;0.00;;;;;;;;;;5015589;28;20449;-68
2022/04/24 00:57:35;;;;;;;0.10;0.10;;;;;;;;;;5015847;28;20038;-68
2022/04/24 01:00:01;;;;;;;0.00;0.00;;;;;;;;;;5015811;28;20073;-68
2022/04/24 01:02:27;;;;;;;0.20;0.20;;;;;;;;;;5015654;28;20046;-68
2022/04/24 01:04:54;;;;;;;0.05;0.05;;;;;;;;;;5015719;28;20053;-68
2022/04/24 01:07:20;;;;;;;0.00;0.00;;;;;;;;;;5015933;28;20128;-68
2022/04/24 01:09:46;;;;;;;0.10;0.10;;;;;;;;;;5015336;28;20122;-68
2022/04/24 01:12:12;;;;;;;0.10;0.10;;;;;;;;;;5015403;28;20049;-68
2022/04/24 01:14:38;;;;;;;0.10;0.10;;;;;;;;;;5015551;28;20173;-68
2022/04/24 01:17:05;;;;;;;0.10;0.10;;;;;;;;;;5015577;28;20548;-68
2022/04/24 01:19:31;;;;;;;0.10;0.10;;;;;;;;;;5015530;28;20514;-68
2022/04/24 01:22:01;;;;;;;0.10;0.10;;;;;;;;;;5015216;28;20080;-68
2022/04/24 01:24:28;;;;;;;0.10;0.10;;;;;;;;;;5015325;28;20033;-68
2022/04/24 01:32:20;;;;;;;0.03;0.03;;;;;;;;;;5421387;23;20117;-73
2022/04/24 01:34:47;;;;;;;0.17;0.17;;;;;;;;;;5015494;28;20052;-74
2022/04/24 01:37:13;;;;;;;0.10;0.10;;;;;;;;;;5015068;28;20045;-73
2022/04/24 01:39:40;;;;;;;0.10;0.10;;;;;;;;;;5014818;28;20100;-73
2022/04/24 01:42:06;;;;;;;0.10;0.10;;;;;;;;;;5014707;28;20049;-74
2022/04/24 01:47:08;;;;;;;0.00;0.00;;;;;;;;;;5051415;23;20579;-73
2022/04/24 01:49:34;;;;;;;0.10;0.10;;;;;;;;;;5013578;28;20119;-73
2022/04/24 01:52:01;;;;;;;0.10;0.10;;;;;;;;;;5013454;28;20048;-73
2022/04/24 01:54:27;;;;;;;0.10;0.10;;;;;;;;;;5013735;28;20061;-73
2022/04/24 01:56:53;;;;;;;0.10;0.10;;;;;;;;;;5013356;28;20034;-74
2022/04/24 01:59:19;;;;;;;0.10;0.10;;;;;;;;;;5013614;28;20034;-74
2022/04/24 02:01:45;;;;;;;0.10;0.10;;;;;;;;;;5013665;28;20132;-74
2022/04/24 02:04:11;;;;;;;0.10;0.10;;;;;;;;;;5013368;28;20391;-73
2022/04/24 02:06:37;;;;;;;0.10;0.10;;;;;;;;;;5013072;28;20046;-73
2022/04/24 02:09:04;;;;;;;0.10;0.10;;;;;;;;;;5013315;28;20038;-74
2022/04/24 02:11:30;;;;;;;0.10;0.10;;;;;;;;;;5013281;28;20053;-73
2022/04/24 02:13:56;;;;;;;0.10;0.10;;;;;;;;;;5013546;28;20076;-73
2022/04/24 02:16:22;;;;;;;0.10;0.10;;;;;;;;;;5013403;28;20046;-74
2022/04/24 02:18:48;;;;;;;0.00;0.00;;;;;;;;;;5013491;28;20041;-74
2022/04/24 02:21:14;;;;;;;0.10;0.10;;;;;;;;;;5013383;28;20038;-74
2022/04/24 02:23:41;;;;;;;0.52;0.52;;;;;;;;;;5013171;28;20042;-73
2022/04/24 02:26:07;;;;;;;1.00;0.25;;;;;;;;;;5013327;28;20042;-73
2022/04/24 02:28:33;;;;;;;0.10;0.10;;;;;;;;;;5013176;28;20077;-73
2022/04/24 02:30:59;;;;;;;0.10;0.10;;;;;;;;;;5012851;28;20034;-73
2022/04/24 02:33:26;;;;;;;0.03;0.03;;;;;;;;;;5013136;28;20038;-73
2022/04/24 02:35:52;;;;;;;0.08;0.08;;;;;;;;;;5013210;28;20523;-73
2022/04/24 02:38:18;;;;;;;0.10;0.10;;;;;;;;;;5013059;28;20104;-74
2022/04/24 02:40:44;;;;;;;0.10;0.10;;;;;;;;;;5012993;28;20128;-73
2022/04/24 02:43:10;;;;;;;0.10;0.10;;;;;;;;;;5013189;28;20134;-73
2022/04/24 02:45:36;;;;;;;0.10;0.10;;;;;;;;;;5015785;28;20081;-74
2022/04/24 02:48:03;;;;;;;0.10;0.10;;;;;;;;;;5017358;28;20074;-73
2022/04/24 02:50:29;;;;;;;0.10;0.10;;;;;;;;;;5016928;28;20550;-73
2022/04/24 02:52:56;;;;;;;0.10;0.10;;;;;;;;;;5017006;28;20042;-73
2022/04/24 02:55:23;;;;;;;0.10;0.10;;;;;;;;;;5017056;28;20050;-73
2022/04/24 02:57:49;;;;;;;0.10;0.10;;;;;;;;;;5017164;28;20034;-73
2022/04/24 03:00:22;;;;;;;0.22;0.22;;;;;;;;;;5016723;28;20038;-73
2022/04/24 03:02:49;;;;;;;0.10;0.10;;;;;;;;;;5016476;28;20045;-73
2022/04/24 03:05:19;;;;;;;0.10;0.10;;;;;;;;;;5016495;28;20492;-73
2022/04/24 03:07:45;;;;;;;0.10;0.10;;;;;;;;;;5016915;28;20047;-73
2022/04/24 03:10:11;;;;;;;0.00;0.00;;;;;;;;;;5016950;28;20045;-73
2022/04/24 03:12:38;;;;;;;0.10;0.10;;;;;;;;;;5016577;28;20041;-73
2022/04/24 03:15:05;;;;;;;0.00;0.00;;;;;;;;;;5016596;28;20046;-73
2022/04/24 03:17:35;;;;;;;0.10;0.10;;;;;;;;;;5016779;28;20141;-73
2022/04/24 03:20:07;;;;;;;0.00;0.00;;;;;;;;;;5016776;28;20046;-73
2022/04/24 03:22:33;;;;;;;0.00;0.00;;;;;;;;;;5016350;28;20054;-74
2022/04/24 03:25:02;;;;;;;0.17;0.17;;;;;;;;;;5016415;28;20520;-73
2022/04/24 03:27:28;;;;;;;0.10;0.10;;;;;;;;;;5016312;28;20077;-74
2022/04/24 03:29:54;;;;;;;0.10;0.10;;;;;;;;;;5016461;28;20120;-73
2022/04/24 03:32:20;;;;;;;0.10;0.10;;;;;;;;;;5016252;28;20054;-73
2022/04/24 03:34:46;;;;;;;0.10;0.10;;;;;;;;;;5016365;28;20050;-73
2022/04/24 03:37:13;;;;;;;0.10;0.10;;;;;;;;;;5016502;28;20502;-74
2022/04/24 03:39:39;;;;;;;0.03;0.03;;;;;;;;;;5016712;28;20034;-73
2022/04/24 03:42:06;;;;;;;0.10;0.10;;;;;;;;;;5016300;28;20053;-73
2022/04/24 03:44:33;;;;;;;0.10;0.10;;;;;;;;;;5016055;28;20058;-73
2022/04/24 03:46:59;;;;;;;0.10;0.10;;;;;;;;;;5015441;28;20182;-73
2022/04/24 03:49:26;;;;;;;0.17;0.17;;;;;;;;;;5015952;28;20065;-73
2022/04/24 03:51:52;;;;;;;0.10;0.10;;;;;;;;;;5015662;28;20050;-73
2022/04/24 03:54:19;;;;;;;0.20;0.20;;;;;;;;;;5015818;28;20034;-73
2022/04/24 03:56:45;;;;;;;0.10;0.10;;;;;;;;;;5014703;28;20451;-73
2022/04/24 03:59:11;;;;;;;0.10;0.10;;;;;;;;;;5015523;28;20121;-73
2022/04/24 04:01:37;;;;;;;0.10;0.10;;;;;;;;;;5015480;28;20054;-74
2022/04/24 04:04:04;;;;;;;0.10;0.10;;;;;;;;;;5015288;28;20508;-73
2022/04/24 04:06:30;;;;;;;0.08;0.08;;;;;;;;;;5015530;28;20049;-74
2022/04/24 04:08:56;;;;;;;0.10;0.10;;;;;;;;;;5015594;28;20309;-73
2022/04/24 04:11:22;;;;;;;0.10;0.10;;;;;;;;;;5015516;28;20053;-73
2022/04/24 04:13:48;;;;;;;0.10;0.10;;;;;;;;;;5015203;28;20056;-74
2022/04/24 04:16:14;;;;;;;0.90;0.77;;;;;;;;;;5015390;28;20050;-73
2022/04/24 04:18:40;;;;;;;0.13;0.13;;;;;;;;;;5015293;28;20037;-73
2022/04/24 04:21:06;;;;;;;0.10;0.10;;;;;;;;;;5014986;28;20127;-73
2022/04/24 04:23:43;;;;;;;0.10;0.10;;;;;;;;;;5015257;28;20397;-74
2022/04/24 04:26:09;;;;;;;0.10;0.10;;;;;;;;;;4997696;28;20065;-73
2022/04/24 04:28:35;;;;;;;0.10;0.10;;;;;;;;;;5015161;28;20042;-74
2022/04/24 04:31:02;;;;;;;0.10;0.10;;;;;;;;;;5014996;28;20096;-73
2022/04/24 04:33:28;;;;;;;0.10;0.10;;;;;;;;;;5015002;28;20080;-74
2022/04/24 04:35:54;;;;;;;0.10;0.10;;;;;;;;;;5015245;28;20050;-73
2022/04/24 04:38:20;;;;;;;0.10;0.10;;;;;;;;;;5014971;28;20071;-73
2022/04/24 04:40:46;;;;;;;0.10;0.10;;;;;;;;;;5014957;28;20049;-73
2022/04/24 04:43:13;;;;;;;0.10;0.10;;;;;;;;;;5014812;28;20057;-73
2022/04/24 04:45:39;;;;;;;0.00;0.00;;;;;;;;;;5014492;28;20064;-73
2022/04/24 04:48:05;;;;;;;0.10;0.10;;;;;;;;;;5015142;28;20038;-74
2022/04/24 04:50:32;;;;;;;0.08;0.08;;;;;;;;;;5014798;28;20056;-74
2022/04/24 04:52:58;;;;;;;0.10;0.10;;;;;;;;;;4997376;28;20366;-73
2022/04/24 04:55:24;;;;;;;0.05;0.05;;;;;;;;;;5015126;28;20046;-74
2022/04/24 04:57:51;;;;;;;0.30;0.20;;;;;;;;;;5014962;28;20048;-74
2022/04/24 05:00:17;;;;;;;0.10;0.10;;;;;;;;;;5014709;28;20034;-74
2022/04/24 05:02:43;;;;;;;0.03;0.03;;;;;;;;;;5014486;28;20049;-73
2022/04/24 05:05:10;;;;;;;0.10;0.10;;;;;;;;;;5015013;28;20038;-74
2022/04/24 05:07:36;;;;;;;0.10;0.10;;;;;;;;;;5014134;28;20056;-74
2022/04/24 05:10:03;;;;;;;0.08;0.08;;;;;;;;;;5014783;28;20530;-73
2022/04/24 05:12:30;;;;;;;0.10;0.10;;;;;;;;;;5014395;28;20515;-73
2022/04/24 05:15:06;;;;;;;0.10;0.10;;;;;;;;;;5014276;28;20100;-73
2022/04/24 05:17:34;;;;;;;0.10;0.10;;;;;;;;;;5014583;28;20045;-73
2022/04/24 05:20:00;;;;;;;0.10;0.10;;;;;;;;;;5014294;28;20046;-74
2022/04/24 05:22:26;;;;;;;0.10;0.10;;;;;;;;;;5014731;28;20061;-73
2022/04/24 05:24:52;;;;;;;0.10;0.10;;;;;;;;;;5014668;28;20074;-73
2022/04/24 05:27:19;;;;;;;0.10;0.10;;;;;;;;;;5014466;28;20041;-73
2022/04/24 05:29:46;;;;;;;0.10;0.10;;;;;;;;;;5014015;28;20042;-73
2022/04/24 05:32:12;;;;;;;0.10;0.10;;;;;;;;;;5014144;28;20100;-74
2022/04/24 05:34:39;;;;;;;0.10;0.10;;;;;;;;;;5014508;28;20125;-73
2022/04/24 05:37:05;;;;;;;0.00;0.00;;;;;;;;;;5014318;28;20052;-74
2022/04/24 05:39:31;;;;;;;0.10;0.10;;;;;;;;;;5013964;28;20184;-73
2022/04/24 05:41:57;;;;;;;0.10;0.10;;;;;;;;;;5013799;28;20096;-73
2022/04/24 05:44:24;;;;;;;0.10;0.10;;;;;;;;;;5014220;28;20056;-74
2022/04/24 05:46:50;;;;;;;0.00;0.00;;;;;;;;;;5013894;28;20582;-74
2022/04/24 05:49:16;;;;;;;0.10;0.10;;;;;;;;;;5013829;28;20507;-73
2022/04/24 05:51:43;;;;;;;0.10;0.10;;;;;;;;;;5013835;28;20551;-73
2022/04/24 05:54:09;;;;;;;0.10;0.10;;;;;;;;;;5014052;28;20046;-73
2022/04/24 05:56:35;;;;;;;0.10;0.10;;;;;;;;;;5013836;28;20538;-73
2022/04/24 05:59:03;;;;;;;0.10;0.10;;;;;;;;;;5013976;28;20048;-73
2022/04/24 06:01:29;;;;;;;0.10;0.10;;;;;;;;;;5013427;28;20053;-73
2022/04/24 06:03:55;;;;;;;0.20;0.20;;;;;;;;;;5013939;28;20126;-73
2022/04/24 06:06:21;;;;;;;0.10;0.10;;;;;;;;;;5013731;28;20046;-73
2022/04/24 06:08:47;;;;;;;0.25;0.25;;;;;;;;;;5013892;28;20041;-73
2022/04/24 06:11:13;;;;;;;0.10;0.10;;;;;;;;;;5013876;28;20038;-73
2022/04/24 06:13:40;;;;;;;0.10;0.10;;;;;;;;;;5013538;28;20099;-73
2022/04/24 06:16:06;;;;;;;0.20;0.20;;;;;;;;;;5013505;28;20050;-73
2022/04/24 06:18:33;;;;;;;0.10;0.10;;;;;;;;;;5013817;28;20045;-74
2022/04/24 06:20:59;;;;;;;0.10;0.10;;;;;;;;;;5017123;28;20480;-73
2022/04/24 06:23:27;;;;;;;0.10;0.10;;;;;;;;;;5017367;28;20050;-74
2022/04/24 06:25:53;;;;;;;0.10;0.10;;;;;;;;;;5017926;28;20042;-74
2022/04/24 06:28:19;;;;;;;0.10;0.10;;;;;;;;;;5017750;28;20042;-73
2022/04/24 06:30:47;;;;;;;0.10;0.10;;;;;;;;;;5016909;28;20575;-73
2022/04/24 06:33:14;;;;;;;0.10;0.10;;;;;;;;;;5017545;28;20045;-73
2022/04/24 06:35:41;;;;;;;0.10;0.10;;;;;;;;;;5000133;28;20036;-74
2022/04/24 06:38:09;;;;;;;0.10;0.10;;;;;;;;;;5017615;28;20045;-73
2022/04/24 06:40:35;;;;;;;0.00;0.00;;;;;;;;;;5016296;28;20153;-73
2022/04/24 06:43:04;;;;;;;0.10;0.10;;;;;;;;;;5025793;28;20508;-73
2022/04/24 06:45:40;;;;;;;0.10;0.10;;;;;;;;;;5016771;28;20065;-74
2022/04/24 06:48:09;;;;;;;0.10;0.10;;;;;;;;;;4998531;28;21544;-74
2022/04/24 06:50:37;;;;;;;0.10;0.10;;;;;;;;;;5016769;28;20049;-73
2022/04/24 06:53:03;;;;;;;0.10;0.10;;;;;;;;;;5016356;28;20050;-74
2022/04/24 06:55:30;;;;;;;0.10;0.10;;;;;;;;;;5016860;28;20042;-73
2022/04/24 06:57:57;;;;;;;0.10;0.10;;;;;;;;;;5016968;28;20042;-74
2022/04/24 07:00:23;;;;;;;0.10;0.10;;;;;;;;;;5016356;28;20057;-73
2022/04/24 07:02:50;;;;;;;0.10;0.10;;;;;;;;;;5016761;28;20052;-73
2022/04/24 07:05:16;;;;;;;0.47;0.47;;;;;;;;;;5016251;28;20065;-73
2022/04/24 07:07:42;;;;;;;0.10;0.10;;;;;;;;;;4995125;28;20073;-74
2022/04/24 07:10:10;;;;;;;0.10;0.10;;;;;;;;;;5014232;28;20107;-75
2022/04/24 07:12:46;;;;;;;0.10;0.10;;;;;;;;;;5025034;28;20044;-74
2022/04/24 07:15:13;;;;;;;0.00;0.00;;;;;;;;;;5036347;28;20041;-75
2022/04/24 07:17:40;;;;;;;0.10;0.10;;;;;;;;;;5036229;28;20033;-74
2022/04/24 07:20:07;;;;;;;0.03;0.03;;;;;;;;;;5036221;28;20045;-74
2022/04/24 07:22:43;;;;;;;0.10;0.10;;;;;;;;;;5034531;28;20060;-74
2022/04/24 07:25:09;;;;;;;0.10;0.10;;;;;;;;;;5000275;28;20504;-74
2022/04/24 07:27:36;;;;;;;0.10;0.10;;;;;;;;;;5016148;28;20052;-74
2022/04/24 07:30:02;;;;;;;0.10;0.10;;;;;;;;;;5015247;28;20037;-74
2022/04/24 07:32:28;;;;;;;2.28;0.50;;;;;;;;;;5015637;28;20080;-74
2022/04/24 07:34:54;;;;;;;0.40;0.40;;;;;;;;;;5016045;28;20042;-74
2022/04/24 07:37:20;;;;;;;0.10;0.10;;;;;;;;;;5015715;28;20053;-74
2022/04/24 07:39:46;;;;;;;0.20;0.20;;;;;;;;;;4994293;28;20400;-73
2022/04/24 07:42:12;;;;;;;0.20;0.20;;;;;;;;;;5027152;28;20108;-73
2022/04/24 07:44:39;;;;;;;0.20;0.20;;;;;;;;;;5033443;28;20048;-74
2022/04/24 07:47:05;;;;;;;2.45;1.80;;;;;;;;;;5016031;28;20559;-74
2022/04/24 07:49:31;;;;;;;0.38;0.38;;;;;;;;;;5016011;28;20088;-75
2022/04/24 07:51:57;;;;;;;0.28;0.28;;;;;;;;;;5006652;28;20057;-73
2022/04/24 07:54:23;;;;;;;0.30;0.30;;;;;;;;;;5014902;28;20123;-73
2022/04/24 07:56:49;;;;;;;0.30;0.30;;;;;;;;;;5015693;28;20053;-73
2022/04/24 07:59:15;;;;;;;0.22;0.22;;;;;;;;;;5015498;28;20042;-73
2022/04/24 08:01:41;;;;;;;0.25;0.25;;;;;;;;;;5014261;28;20061;-73
2022/04/24 08:04:08;;;;;;;0.50;0.50;;;;;;;;;;5013310;28;20068;-73
2022/04/24 08:06:34;;;;;;;3.30;0.47;;;;;;;;;;5027597;28;20053;-74
2022/04/24 08:09:00;;;;;;;0.22;0.22;;;;;;;;;;5025847;28;20045;-75
2022/04/24 08:11:26;;;;;;;0.20;0.20;;;;;;;;;;5013639;28;20492;-75
2022/04/24 08:13:52;;;;;;;0.52;0.47;;;;;;;;;;5015342;28;20049;-74
2022/04/24 08:16:18;;;;;;;1.55;0.45;;;;;;;;;;5015064;28;20072;-74
2022/04/24 08:18:44;;;;;;;0.90;0.82;;;;;;;;;;5015801;28;20038;-74
2022/04/24 08:21:11;;;;;;;0.85;0.60;;;;;;;;;;5015561;28;20041;-74
2022/04/24 08:23:37;;;;;;;3.10;1.55;;;;;;;;;;5015616;28;20038;-74
2022/04/24 08:26:03;;;;;;;0.32;0.32;;;;;;;;;;5015722;28;20046;-74
2022/04/24 08:28:29;;;;;;;0.43;0.43;;;;;;;;;;5015563;28;20057;-74
2022/04/24 08:30:57;;;;;;;2.45;0.75;;;;;;;;;;5015270;28;20042;-75
2022/04/24 08:33:23;;;;;;;1.27;1.17;;;;;;;;;;5015419;28;20080;-74
2022/04/24 08:35:49;;;;;;;1.17;0.82;;;;;;;;;;5015119;28;20124;-74
2022/04/24 08:38:15;;;;;;;0.22;0.22;;;;;;;;;;5015046;28;20121;-74
2022/04/24 08:40:41;;;;;;;0.32;0.32;;;;;;;;;;5015307;28;20092;-74
2022/04/24 08:43:08;;;;;;;0.57;0.57;;;;;;;;;;5014194;28;20050;-74
2022/04/24 08:45:34;;;;;;;0.25;0.25;;;;;;;;;;5014713;28;20140;-74
2022/04/24 08:48:02;;;;;;;0.85;0.85;;;;;;;;;;5014850;28;20048;-74
2022/04/24 08:50:32;;;;;;;1.05;0.28;;;;;;;;;;5014505;28;20132;-74
2022/04/24 08:52:58;;;;;;;0.30;0.30;;;;;;;;;;5014828;28;20057;-74
2022/04/24 08:55:29;;;;;;;4.03;1.15;;;;;;;;;;5014599;28;20038;-75
2022/04/24 08:57:55;;;;;;;0.90;0.90;;;;;;;;;;5014357;28;20072;-74
2022/04/24 09:00:21;;;;;;;1.45;1.15;;;;;;;;;;5014133;28;20038;-74
2022/04/24 09:02:48;;;;;;;1.48;1.40;;;;;;;;;;5014234;28;20072;-75
2022/04/24 09:05:14;;;;;;;0.52;0.52;;;;;;;;;;4996974;28;20388;-74
2022/04/24 09:07:43;;;;;;;0.93;0.93;;;;;;;;;;5014214;28;20029;-75
2022/04/24 09:10:12;;;;;;;0.93;0.93;;;;;;;;;;5014170;28;20034;-75
2022/04/24 09:12:39;;;;;;;2.55;1.38;;;;;;;;;;5014146;28;20046;-75
2022/04/24 09:15:06;;;;;;;0.85;0.82;;;;;;;;;;5014073;28;20065;-75
2022/04/24 09:17:33;;;;;;;1.20;0.82;;;;;;;;;;5014346;28;20048;-75
2022/04/24 09:20:00;;;;;;;0.20;0.20;;;;;;;;;;5014283;28;20069;-75
2022/04/24 09:22:26;;;;;;;0.10;0.10;;;;;;;;;;4996320;28;20049;-75
2022/04/24 09:24:54;;;;;;;1.10;0.82;;;;;;;;;;5014219;28;20080;-75
2022/04/24 09:27:25;;;;;;;0.15;0.15;;;;;;;;;;5013898;28;20539;-75
2022/04/24 09:29:54;;;;;;;2.97;0.63;;;;;;;;;;5014043;28;20042;-75
2022/04/24 09:32:21;;;;;;;0.50;0.50;;;;;;;;;;5013836;28;20050;-75
2022/04/24 09:34:47;;;;;;;0.75;0.75;;;;;;;;;;5013851;28;20412;-75
2022/04/24 09:37:13;;;;;;;0.70;0.70;;;;;;;;;;5014064;28;20081;-75
2022/04/24 09:39:40;;;;;;;0.35;0.35;;;;;;;;;;5013991;28;20049;-75
2022/04/24 09:42:12;;;;;;;0.85;0.40;;;;;;;;;;5013817;28;20038;-75
2022/04/24 09:44:47;;;;;;;0.77;0.77;;;;;;;;;;5013812;28;20060;-75
2022/04/24 09:47:14;;;;;;;0.55;0.55;;;;;;;;;;5014274;28;20464;-75
2022/04/24 09:49:40;;;;;;;2.97;1.35;;;;;;;;;;5014120;28;20046;-75
2022/04/24 09:52:10;;;;;;;1.33;1.30;;;;;;;;;;5014089;28;20049;-75
2022/04/24 09:54:38;;;;;;;1.92;1.02;;;;;;;;;;5013825;28;20048;-75
2022/04/24 09:57:05;;;;;;;0.55;0.52;;;;;;;;;;5013989;28;20042;-75
2022/04/24 09:59:32;;;;;;;0.73;0.73;;;;;;;;;;5013999;28;20065;-75
2022/04/24 10:01:58;;;;;;;1.20;1.10;;;;;;;;;;5013391;28;20062;-75
2022/04/24 10:04:24;;;;;;;0.38;0.38;;;;;;;;;;5013912;28;20038;-75
2022/04/24 10:06:51;;;;;;;0.55;0.55;;;;;;;;;;5013709;28;20049;-75
2022/04/24 10:09:17;;;;;;;1.25;0.68;;;;;;;;;;5013615;28;20037;-75
2022/04/24 10:11:43;;;;;;;0.55;0.55;;;;;;;;;;5013836;28;20050;-75
2022/04/24 10:14:12;;;;;;;0.50;0.50;;;;;;;;;;5013781;28;20037;-75
2022/04/24 10:16:38;;;;;;;1.17;1.10;;;;;;;;;;5013738;28;20076;-74
2022/04/24 10:19:13;;;;;;;0.40;0.40;;;;;;;;;;5013798;28;20042;-75
2022/04/24 10:21:52;;;;;;;0.17;0.17;;;;;;;;;;5013666;28;20053;-75
2022/04/24 10:24:19;;;;;;;0.20;0.20;;;;;;;;;;5013456;28;20042;-74
2022/04/24 10:26:55;;;;;;;0.22;0.22;;;;;;;;;;5013592;28;20100;-75
2022/04/24 10:29:21;;;;;;;0.47;0.47;;;;;;;;;;5013393;28;20038;-75
2022/04/24 10:31:48;;;;;;;0.20;0.20;;;;;;;;;;5013218;28;20054;-75
2022/04/24 10:34:16;;;;;;;0.13;0.13;;;;;;;;;;5013589;28;20096;-75
2022/04/24 10:37:02;;;;;;;0.10;0.10;;;;;;;;;;5013439;28;20046;-74
2022/04/24 10:39:37;;;;;;;0.32;0.32;;;;;;;;;;5013601;28;20100;-75
2022/04/24 10:42:14;;;;;;;0.30;0.30;;;;;;;;;;5012951;28;20053;-75
2022/04/24 10:44:50;;;;;;;0.10;0.10;;;;;;;;;;5013125;28;20177;-75
2022/04/24 10:47:17;;;;;;;0.10;0.10;;;;;;;;;;5012475;28;20128;-73
2022/04/24 10:49:43;;;;;;;0.98;0.50;;;;;;;;;;5012061;28;20038;-73
2022/04/24 10:52:09;;;;;;;0.32;0.32;;;;;;;;;;5013457;28;20046;-73
2022/04/24 10:54:39;;;;;;;0.13;0.13;;;;;;;;;;5013418;28;20041;-73
2022/04/24 10:57:16;;;;;;;0.20;0.20;;;;;;;;;;5012432;28;20045;-72
2022/04/24 10:59:48;;;;;;;0.25;0.25;;;;;;;;;;5012932;28;20045;-73
2022/04/24 11:02:14;;;;;;;0.10;0.10;;;;;;;;;;5013008;28;20374;-72
2022/04/24 11:04:41;;;;;;;0.20;0.20;;;;;;;;;;5012868;28;20041;-73
2022/04/24 11:07:07;;;;;;;0.20;0.20;;;;;;;;;;5015619;28;20050;-73
2022/04/24 11:09:35;;;;;;;0.10;0.10;;;;;;;;;;5016784;28;20034;-72
2022/04/24 11:12:06;;;;;;;0.20;0.20;;;;;;;;;;5017062;28;20053;-73
2022/04/24 11:14:33;;;;;;;0.20;0.20;;;;;;;;;;5016701;28;20599;-73
2022/04/24 11:17:01;;;;;;;0.20;0.20;;;;;;;;;;5015540;28;20084;-73
2022/04/24 11:19:28;;;;;;;0.40;0.40;;;;;;;;;;5016191;28;20563;-73
2022/04/24 11:22:01;;;;;;;0.20;0.20;;;;;;;;;;5016204;28;20049;-73
2022/04/24 11:24:28;;;;;;;0.77;0.60;;;;;;;;;;5016165;28;20065;-73
2022/04/24 11:26:58;;;;;;;0.17;0.17;;;;;;;;;;5027852;28;20496;-73
2022/04/24 11:29:24;;;;;;;0.38;0.38;;;;;;;;;;5016417;28;20030;-73
2022/04/24 11:31:52;;;;;;;0.25;0.25;;;;;;;;;;5016413;28;20053;-73
2022/04/24 11:34:19;;;;;;;0.15;0.15;;;;;;;;;;5021724;28;20066;-73
2022/04/24 11:36:46;;;;;;;0.30;0.30;;;;;;;;;;5025791;28;20116;-73
2022/04/24 11:39:13;;;;;;;0.65;0.50;;;;;;;;;;5016474;28;20049;-72
2022/04/24 11:41:39;;;;;;;0.43;0.43;;;;;;;;;;5015773;28;20061;-73
2022/04/24 11:52:23;;;;;;;0.20;0.20;;;;;;;;;;5015290;28;20049;-71
2022/04/24 11:54:51;;;;;;;0.30;0.30;;;;;;;;;;5016149;28;20048;-72
2022/04/24 11:57:18;;;;;;;0.30;0.30;;;;;;;;;;5015784;28;20116;-73
2022/04/24 11:59:51;;;;;;;0.85;0.40;;;;;;;;;;5015195;28;20037;-71
2022/04/24 12:02:17;;;;;;;0.35;0.35;;;;;;;;;;5024388;28;20045;-71
2022/04/24 12:04:43;;;;;;;1.27;1.25;;;;;;;;;;5020921;28;20045;-71
2022/04/24 12:07:10;;;;;;;0.28;0.28;;;;;;;;;;5030104;28;20041;-70
2022/04/24 12:09:37;;;;;;;0.52;0.50;;;;;;;;;;5033194;28;20105;-71
2022/04/24 12:12:05;;;;;;;1.55;1.13;;;;;;;;;;5015376;28;20034;-71
2022/04/24 12:14:31;;;;;;;2.55;0.43;;;;;;;;;;5017592;28;20045;-71
2022/04/24 12:17:03;;;;;;;1.38;1.27;;;;;;;;;;5028045;28;20049;-71
2022/04/24 12:19:29;;;;;;;0.28;0.28;;;;;;;;;;5034972;28;20049;-71
2022/04/24 12:21:55;;;;;;;0.50;0.50;;;;;;;;;;5031860;28;20543;-71
2022/04/24 12:24:22;;;;;;;0.20;0.20;;;;;;;;;;5015096;28;20125;-71
2022/04/24 12:26:48;;;;;;;1.13;0.57;;;;;;;;;;5015361;28;20081;-71
2022/04/24 12:29:17;;;;;;;0.43;0.43;;;;;;;;;;5015138;28;20049;-71
2022/04/24 12:31:47;;;;;;;0.30;0.30;;;;;;;;;;5015070;28;20045;-71
2022/04/24 12:34:13;;;;;;;0.82;0.82;;;;;;;;;;5014255;28;20037;-71
2022/04/24 12:36:49;;;;;;;0.82;0.82;;;;;;;;;;5015203;28;20048;-71
2022/04/24 12:39:22;;;;;;;1.50;1.40;;;;;;;;;;5014635;28;20104;-71
2022/04/24 12:41:49;;;;;;;4.82;1.77;;;;;;;;;;4993657;28;20054;-71
2022/04/24 12:44:15;;;;;;;1.10;1.00;;;;;;;;;;4994591;28;20042;-71
2022/04/24 12:46:41;;;;;;;0.52;0.52;;;;;;;;;;4995469;28;20149;-71
2022/04/24 12:49:08;;;;;;;0.75;0.75;;;;;;;;;;5011943;28;20187;-71
2022/04/24 12:51:34;;;;;;;0.85;0.85;;;;;;;;;;5014931;28;20095;-73
2022/04/24 12:54:01;;;;;;;0.70;0.70;;;;;;;;;;5017537;28;20046;-75
2022/04/24 12:56:27;;;;;;;0.30;0.30;;;;;;;;;;5007156;28;20075;-73
2022/04/24 12:58:54;;;;;;;1.17;0.80;;;;;;;;;;5014717;28;20042;-71
2022/04/24 13:01:23;;;;;;;0.40;0.40;;;;;;;;;;5001117;28;20120;-71
2022/04/24 13:03:50;;;;;;;6.90;1.60;;;;;;;;;;4977426;28;20057;-71
2022/04/24 13:06:17;;;;;;;1.02;0.98;;;;;;;;;;4994822;28;20072;-71
2022/04/24 13:08:43;;;;;;;1.40;0.98;;;;;;;;;;4994727;28;20048;-71
2022/04/24 13:11:10;;;;;;;0.30;0.30;;;;;;;;;;4994001;28;20073;-71
2022/04/24 13:13:36;;;;;;;1.45;1.05;;;;;;;;;;4994268;28;20543;-72
2022/04/24 13:18:47;;;;;;;0.50;0.50;;;;;;;;;;5012382;28;20526;-71
2022/04/24 13:21:14;;;;;;;0.65;0.65;;;;;;;;;;5013850;28;20120;-71
2022/04/24 13:23:40;;;;;;;1.58;1.48;;;;;;;;;;5012760;28;20400;-71
2022/04/24 13:26:06;;;;;;;1.08;1.02;;;;;;;;;;5013785;28;20046;-71
2022/04/24 13:28:34;;;;;;;1.27;1.10;;;;;;;;;;5013086;28;20077;-72
2022/04/24 13:31:01;;;;;;;1.27;1.25;;;;;;;;;;5011048;28;20042;-71
2022/04/24 13:33:29;;;;;;;1.02;1.00;;;;;;;;;;4995226;28;20404;-71
2022/04/24 13:35:55;;;;;;;2.92;2.28;;;;;;;;;;5015747;28;20099;-72
2022/04/24 13:38:22;;;;;;;1.25;1.15;;;;;;;;;;5016609;28;20150;-71
2022/04/24 13:40:54;;;;;;;2.25;0.85;;;;;;;;;;5013785;28;20096;-74
2022/04/24 13:43:21;;;;;;;1.50;1.20;;;;;;;;;;5014267;28;20547;-72
2022/04/24 13:45:48;;;;;;;0.30;0.30;;;;;;;;;;5019083;28;20123;-72
2022/04/24 13:48:15;;;;;;;0.65;0.55;;;;;;;;;;5014696;28;20042;-72
2022/04/24 13:50:41;;;;;;;0.60;0.60;;;;;;;;;;5014005;28;20045;-71
2022/04/24 13:53:08;;;;;;;0.55;0.55;;;;;;;;;;5017645;28;20085;-71
2022/04/24 13:55:35;;;;;;;0.57;0.57;;;;;;;;;;5016029;28;20451;-72
2022/04/24 13:58:03;;;;;;;3.22;1.92;;;;;;;;;;5022152;28;20693;-71
2022/04/24 14:00:31;;;;;;;0.68;0.68;;;;;;;;;;5010001;28;20217;-72
2022/04/24 14:02:57;;;;;;;6.80;1.17;;;;;;;;;;4999186;28;20136;-71
2022/04/24 14:05:25;;;;;;;1.17;1.17;;;;;;;;;;5010573;28;20077;-81
2022/04/24 14:07:52;;;;;;;7.40;2.17;;;;;;;;;;5012670;28;20030;-72
2022/04/24 14:10:18;;;;;;;1.08;0.85;;;;;;;;;;5013496;28;20038;-72
2022/04/24 14:12:45;;;;;;;0.52;0.45;;;;;;;;;;4995459;28;20056;-72
2022/04/24 14:15:11;;;;;;;1.15;1.00;;;;;;;;;;5013310;28;20042;-72
2022/04/24 14:17:37;;;;;;;0.40;0.25;;;;;;;;;;5013540;28;20073;-72
2022/04/24 14:20:04;;;;;;;2.03;1.40;;;;;;;;;;5013208;28;20104;-72
2022/04/24 14:22:30;;;;;;;0.77;0.73;;;;;;;;;;5013131;28;20054;-72
2022/04/24 14:24:56;;;;;;;0.85;0.85;;;;;;;;;;5013645;28;20048;-72
2022/04/24 14:27:22;;;;;;;0.52;0.52;;;;;;;;;;5013470;28;20048;-72
2022/04/24 14:29:48;;;;;;;0.55;0.55;;;;;;;;;;5012950;28;20096;-72
2022/04/24 14:32:15;;;;;;;1.75;1.33;;;;;;;;;;5013412;28;20046;-72
2022/04/24 14:34:41;;;;;;;0.45;0.45;;;;;;;;;;5013211;28;20091;-71
2022/04/24 14:37:08;;;;;;;0.30;0.30;;;;;;;;;;5013095;28;20108;-72
2022/04/24 14:39:34;;;;;;;0.82;0.82;;;;;;;;;;5013309;28;20050;-72
2022/04/24 14:42:01;;;;;;;2.63;1.27;;;;;;;;;;5016621;28;20046;-72
2022/04/24 14:44:27;;;;;;;0.93;0.93;;;;;;;;;;5019533;28;20044;-72
2022/04/24 14:57:52;;;;;;;0.73;0.73;;;;;;;;;;5033266;28;20044;-72
2022/04/24 15:00:25;;;;;;;1.02;0.93;;;;;;;;;;5024642;28;20041;-72
2022/04/24 15:02:52;;;;;;;1.15;1.05;;;;;;;;;;5026320;28;20052;-72
2022/04/24 15:05:18;;;;;;;0.63;0.63;;;;;;;;;;5021857;28;20048;-72
2022/04/24 15:07:44;;;;;;;1.00;0.85;;;;;;;;;;5016798;28;20042;-72
2022/04/24 15:10:10;;;;;;;0.95;0.65;;;;;;;;;;5016488;28;20073;-72
2022/04/24 15:12:36;;;;;;;0.93;0.88;;;;;;;;;;5016689;28;20045;-72